Time;durP1;ratioP1;P1;durP2;ratioP2;P2;SDS_P1;SDS_P2;PMS_P1;PMS_P2;Temp;Humidity;BMP_temperature;BMP_pressure;BME280_temperature;BME280_humidity;BME280_pressure;Samples;Min_cycle;Max_cycle;Signal;HPM_P1;HPM_P2
2022/01/03 00:00:47;;;;;;;73.37;22.00;;;7.10;96.30;;;;;;5067322;28;20210;-70
2022/01/03 00:03:16;;;;;;;58.57;22.20;;;7.10;96.20;;;;;;5079585;28;20205;-70
2022/01/03 00:05:44;;;;;;;144.47;25.73;;;7.00;96.20;;;;;;5063283;28;20232;-70
2022/01/03 00:08:11;;;;;;;90.03;23.03;;;7.00;96.20;;;;;;5064075;28;20279;-69
2022/01/03 00:10:38;;;;;;;105.23;22.73;;;7.10;96.10;;;;;;5047753;28;20598;-70
2022/01/03 00:13:06;;;;;;;61.63;22.63;;;7.00;96.00;;;;;;5064242;28;20214;-69
2022/01/03 00:15:33;;;;;;;196.93;25.40;;;7.00;96.10;;;;;;5064884;28;20518;-69
2022/01/03 00:18:00;;;;;;;179.60;28.50;;;7.00;96.10;;;;;;5065813;28;20200;-69
2022/01/03 00:20:28;;;;;;;194.63;25.30;;;7.00;96.10;;;;;;5070426;28;20255;-70
2022/01/03 00:23:03;;;;;;;66.67;22.00;;;7.00;96.10;;;;;;5053248;28;20236;-69
2022/01/03 00:25:34;;;;;;;328.47;30.63;;;7.00;96.00;;;;;;5070078;28;20233;-70
2022/01/03 00:28:14;;;;;;;69.27;22.57;;;7.00;96.10;;;;;;5055451;28;20223;-69
2022/01/03 00:30:43;;;;;;;90.47;24.00;;;7.00;96.10;;;;;;5074831;28;20235;-70
2022/01/03 00:33:11;;;;;;;60.90;21.27;;;7.00;96.10;;;;;;5071030;28;20267;-70
2022/01/03 00:35:41;;;;;;;57.23;22.50;;;6.90;96.10;;;;;;5066144;28;20316;-70
2022/01/03 00:38:11;;;;;;;100.50;24.63;;;6.90;96.10;;;;;;5062368;28;20218;-70
2022/01/03 00:40:40;;;;;;;48.33;23.17;;;7.00;96.10;;;;;;5062119;28;20213;-70
2022/01/03 00:43:07;;;;;;;159.50;24.97;;;6.90;96.10;;;;;;5062791;28;20633;-70
2022/01/03 00:45:35;;;;;;;83.13;24.37;;;6.90;96.20;;;;;;5062116;28;20288;-70
2022/01/03 00:48:08;;;;;;;64.07;21.90;;;6.90;96.20;;;;;;5077451;28;20211;-70
2022/01/03 00:50:36;;;;;;;136.17;26.90;;;6.90;96.20;;;;;;5073637;28;20309;-70
2022/01/03 00:53:05;;;;;;;58.47;22.07;;;7.00;96.20;;;;;;5075209;28;20244;-70
2022/01/03 00:55:32;;;;;;;99.60;22.20;;;7.00;96.20;;;;;;5062890;28;20197;-70
2022/01/03 00:58:07;;;;;;;108.17;23.70;;;7.00;96.10;;;;;;5059161;28;20215;-70
2022/01/03 01:00:45;;;;;;;75.77;22.03;;;6.90;96.10;;;;;;5058782;28;20221;-70
2022/01/03 01:03:18;;;;;;;201.17;24.37;;;6.90;96.10;;;;;;5070307;28;20205;-69
2022/01/03 01:05:49;;;;;;;92.47;23.10;;;6.90;96.00;;;;;;5060365;28;20251;-69
2022/01/03 01:08:26;;;;;;;69.43;19.60;;;6.90;96.00;;;;;;5078238;28;20209;-69
2022/01/03 01:10:58;;;;;;;51.90;19.57;;;6.90;96.10;;;;;;5061357;28;20209;-69
2022/01/03 01:13:26;;;;;;;76.00;26.30;;;6.90;96.10;;;;;;5076994;28;20232;-69
2022/01/03 01:15:53;;;;;;;202.27;32.20;;;6.90;96.10;;;;;;5076637;28;20554;-69
2022/01/03 01:18:24;;;;;;;122.37;28.23;;;6.90;96.10;;;;;;5059450;28;20209;-70
2022/01/03 01:20:52;;;;;;;94.43;29.03;;;6.90;95.90;;;;;;5072510;28;20558;-70
2022/01/03 01:23:20;;;;;;;97.27;28.17;;;6.80;95.80;;;;;;5059976;28;20672;-70
2022/01/03 01:28:16;;;;;;;166.30;30.77;;;6.70;95.60;;;;;;5059677;28;20220;-70
2022/01/03 01:30:47;;;;;;;104.33;28.23;;;6.70;95.60;;;;;;5054794;28;20234;-70
2022/01/03 01:33:16;;;;;;;139.50;27.20;;;6.60;95.60;;;;;;5060851;28;20616;-70
2022/01/03 01:36:06;;;;;;;68.27;25.83;;;6.50;95.50;;;;;;5067602;28;20210;-70
2022/01/03 01:38:36;;;;;;;117.50;27.57;;;6.50;95.40;;;;;;5044614;28;20274;-70
2022/01/03 01:41:07;;;;;;;191.70;30.93;;;6.40;95.60;;;;;;5061330;28;20225;-70
2022/01/03 01:43:47;;;;;;;79.23;26.77;;;6.40;95.70;;;;;;5056547;28;20222;-70
2022/01/03 01:46:20;;;;;;;92.50;26.73;;;6.30;95.70;;;;;;5065097;28;20258;-70
2022/01/03 01:48:54;;;;;;;146.57;27.97;;;6.30;95.80;;;;;;5062453;28;20205;-70
2022/01/03 01:51:25;;;;;;;77.67;25.23;;;6.30;95.90;;;;;;5063298;28;20198;-70
2022/01/03 01:53:57;;;;;;;139.87;27.47;;;6.30;95.90;;;;;;5068130;28;20301;-70
2022/01/03 01:56:54;;;;;;;74.20;26.70;;;6.20;95.90;;;;;;5064523;28;20218;-70
2022/01/03 01:59:52;;;;;;;55.67;24.57;;;6.20;96.00;;;;;;5067249;28;20240;-69
2022/01/03 02:02:41;;;;;;;97.07;26.70;;;6.20;95.90;;;;;;5056130;28;20209;-70
2022/01/03 02:05:19;;;;;;;157.97;28.37;;;6.20;96.00;;;;;;5068026;28;20271;-70
2022/01/03 02:08:00;;;;;;;87.33;25.77;;;6.10;96.00;;;;;;5064822;28;20214;-69
2022/01/03 02:10:39;;;;;;;128.57;26.33;;;6.10;96.00;;;;;;5066729;28;20268;-71
2022/01/03 02:13:07;;;;;;;69.27;25.77;;;6.10;96.10;;;;;;5081014;28;20296;-70
2022/01/03 02:15:37;;;;;;;75.37;24.43;;;6.00;96.10;;;;;;5066089;28;20245;-70
2022/01/03 02:18:07;;;;;;;62.97;24.40;;;6.00;96.20;;;;;;5066358;28;20303;-70
2022/01/03 02:20:34;;;;;;;66.33;26.70;;;6.00;96.20;;;;;;5051252;28;20217;-71
2022/01/03 02:23:09;;;;;;;182.20;27.97;;;6.00;96.30;;;;;;5066412;28;20683;-70
2022/01/03 02:25:40;;;;;;;180.97;29.00;;;6.00;96.30;;;;;;5048788;28;20249;-70
2022/01/03 02:28:08;;;;;;;58.30;24.43;;;6.00;96.30;;;;;;5060939;28;20213;-70
2022/01/03 02:30:35;;;;;;;70.57;25.60;;;6.00;96.30;;;;;;5065939;28;20239;-70
2022/01/03 02:33:04;;;;;;;81.67;23.87;;;5.90;96.20;;;;;;5066271;28;20308;-70
2022/01/03 02:35:38;;;;;;;57.10;24.60;;;5.90;96.30;;;;;;5066218;28;20230;-70
2022/01/03 02:38:09;;;;;;;65.27;23.93;;;5.90;96.30;;;;;;5053081;28;20511;-71
2022/01/03 02:40:36;;;;;;;54.63;23.73;;;5.90;96.30;;;;;;5060617;28;20215;-71
2022/01/03 02:43:04;;;;;;;160.80;27.90;;;5.90;96.50;;;;;;5057591;28;20270;-70
2022/01/03 02:45:31;;;;;;;62.30;24.13;;;5.90;96.20;;;;;;5057319;28;20811;-70
2022/01/03 02:48:04;;;;;;;57.47;22.20;;;5.90;96.20;;;;;;5040699;28;20715;-71
2022/01/03 02:50:33;;;;;;;97.23;25.20;;;5.90;96.20;;;;;;5056544;28;20217;-70
2022/01/03 02:53:01;;;;;;;69.60;24.47;;;5.90;96.30;;;;;;5063887;28;20431;-70
2022/01/03 02:55:29;;;;;;;127.97;25.57;;;5.90;96.30;;;;;;5057521;28;20227;-69
2022/01/03 02:58:05;;;;;;;98.23;25.30;;;5.90;96.30;;;;;;5071601;28;20205;-69
2022/01/03 03:00:47;;;;;;;106.90;26.00;;;5.90;96.30;;;;;;5070772;28;20205;-69
2022/01/03 03:03:22;;;;;;;68.90;24.27;;;5.90;96.30;;;;;;5054188;28;20218;-69
2022/01/03 03:05:52;;;;;;;66.03;23.87;;;5.90;96.30;;;;;;5053835;28;20229;-69
2022/01/03 03:08:21;;;;;;;64.67;23.20;;;5.90;96.30;;;;;;5053781;28;20541;-69
2022/01/03 03:10:49;;;;;;;60.80;22.40;;;5.90;96.30;;;;;;5052383;28;20217;-69
2022/01/03 03:13:16;;;;;;;48.07;23.50;;;5.90;96.30;;;;;;5052839;28;20259;-69
2022/01/03 03:15:44;;;;;;;55.03;21.60;;;5.90;96.40;;;;;;5052409;28;20236;-69
2022/01/03 03:18:12;;;;;;;105.77;26.63;;;5.90;96.40;;;;;;5052508;28;20266;-69
2022/01/03 03:20:39;;;;;;;77.97;23.63;;;5.90;96.20;;;;;;5052930;28;20217;-69
2022/01/03 03:23:06;;;;;;;64.23;22.80;;;5.90;96.10;;;;;;5054923;28;20227;-69
2022/01/03 03:25:35;;;;;;;46.80;22.33;;;5.90;96.00;;;;;;5055611;28;20265;-69
2022/01/03 03:28:11;;;;;;;98.77;26.17;;;5.80;96.10;;;;;;5056933;28;20281;-69
2022/01/03 03:30:45;;;;;;;99.50;24.63;;;5.80;96.10;;;;;;5055153;28;20221;-69
2022/01/03 03:33:18;;;;;;;65.73;21.40;;;5.80;96.20;;;;;;5066620;28;20548;-70
2022/01/03 03:35:51;;;;;;;103.10;24.40;;;5.80;96.00;;;;;;5055051;28;20550;-69
2022/01/03 03:38:23;;;;;;;126.97;24.77;;;5.80;95.90;;;;;;5068882;28;20239;-69
2022/01/03 03:40:51;;;;;;;70.93;24.73;;;5.70;95.90;;;;;;5050195;28;20561;-69
2022/01/03 03:43:18;;;;;;;64.43;22.67;;;5.70;96.00;;;;;;5041602;28;20753;-69
2022/01/03 03:45:48;;;;;;;142.93;25.63;;;5.70;96.10;;;;;;5066970;28;20233;-69
2022/01/03 03:48:18;;;;;;;108.50;22.33;;;5.60;96.20;;;;;;5049843;28;20503;-70
2022/01/03 03:50:46;;;;;;;73.43;23.27;;;5.60;96.30;;;;;;5065940;28;20208;-70
2022/01/03 03:53:16;;;;;;;136.47;25.53;;;5.60;96.30;;;;;;5045889;28;20304;-70
2022/01/03 03:55:44;;;;;;;72.20;22.37;;;5.60;96.40;;;;;;5068434;28;20242;-70
2022/01/03 03:58:15;;;;;;;76.07;22.20;;;5.70;96.30;;;;;;5069332;28;20222;-70
2022/01/03 04:00:42;;;;;;;151.40;24.73;;;5.70;96.30;;;;;;5068578;28;20272;-70
2022/01/03 04:03:30;;;;;;;55.67;20.57;;;5.60;96.30;;;;;;5064798;28;20224;-70
2022/01/03 04:05:57;;;;;;;62.90;21.33;;;5.60;96.30;;;;;;5063822;28;20232;-70
2022/01/03 04:08:24;;;;;;;78.73;20.53;;;5.60;96.30;;;;;;5051002;28;20274;-70
2022/01/03 04:10:53;;;;;;;172.03;25.70;;;5.60;96.30;;;;;;5050872;28;20218;-70
2022/01/03 04:13:21;;;;;;;125.27;21.30;;;5.60;96.20;;;;;;5064355;28;20238;-70
2022/01/03 04:15:48;;;;;;;81.97;21.03;;;5.60;96.10;;;;;;5071830;28;20233;-70
2022/01/03 04:18:16;;;;;;;58.83;21.93;;;5.60;96.20;;;;;;5049143;28;20299;-70
2022/01/03 04:20:43;;;;;;;60.53;20.67;;;5.60;96.30;;;;;;5066863;28;20228;-70
2022/01/03 04:23:10;;;;;;;58.23;19.40;;;5.60;96.30;;;;;;5066121;28;20213;-70
2022/01/03 04:25:38;;;;;;;78.17;20.97;;;5.60;96.40;;;;;;5066986;28;20334;-70
2022/01/03 04:28:05;;;;;;;71.03;20.90;;;5.60;96.30;;;;;;5067438;28;20220;-70
2022/01/03 04:30:32;;;;;;;75.80;20.77;;;5.50;96.30;;;;;;5062950;28;20611;-70
2022/01/03 04:32:59;;;;;;;66.03;20.63;;;5.60;96.30;;;;;;5065543;28;20212;-70
2022/01/03 04:35:27;;;;;;;93.73;21.50;;;5.60;96.30;;;;;;5063643;28;20544;-70
2022/01/03 04:37:54;;;;;;;49.93;19.80;;;5.60;96.30;;;;;;5061476;28;20258;-70
2022/01/03 04:40:22;;;;;;;83.37;21.00;;;5.60;96.20;;;;;;5061202;28;20267;-70
2022/01/03 04:42:51;;;;;;;87.63;22.00;;;5.50;96.10;;;;;;5060976;28;20223;-70
2022/01/03 04:45:19;;;;;;;130.90;21.50;;;5.50;96.00;;;;;;5061588;28;20338;-70
2022/01/03 04:47:46;;;;;;;117.43;24.70;;;5.50;96.00;;;;;;5059780;28;20643;-70
2022/01/03 04:50:14;;;;;;;46.57;18.63;;;5.40;96.00;;;;;;5059367;28;20246;-70
2022/01/03 04:52:42;;;;;;;61.93;17.47;;;5.40;96.10;;;;;;5073268;28;20226;-70
2022/01/03 04:55:09;;;;;;;76.30;18.80;;;5.40;96.10;;;;;;5068116;28;20555;-70
2022/01/03 04:57:37;;;;;;;57.53;20.00;;;5.40;96.10;;;;;;5067426;28;20235;-70
2022/01/03 05:00:06;;;;;;;69.10;17.40;;;5.40;96.10;;;;;;5057829;28;20262;-70
2022/01/03 05:02:36;;;;;;;60.70;17.70;;;5.40;96.10;;;;;;5040995;28;20831;-70
2022/01/03 05:05:06;;;;;;;74.47;18.50;;;5.40;96.10;;;;;;5071038;28;20706;-70
2022/01/03 05:07:33;;;;;;;35.30;16.57;;;5.40;96.00;;;;;;5053506;28;20273;-70
2022/01/03 05:10:01;;;;;;;61.93;19.17;;;5.40;96.00;;;;;;5057010;28;20645;-70
2022/01/03 05:12:28;;;;;;;54.17;18.27;;;5.40;96.00;;;;;;5055549;28;20655;-70
2022/01/03 05:14:55;;;;;;;58.00;18.17;;;5.40;96.10;;;;;;5048843;28;20303;-70
2022/01/03 05:17:23;;;;;;;55.13;17.07;;;5.40;96.10;;;;;;5073933;28;20675;-70
2022/01/03 05:19:50;;;;;;;55.10;17.80;;;5.50;96.10;;;;;;5053893;28;20703;-70
2022/01/03 05:22:17;;;;;;;61.77;17.73;;;5.50;96.00;;;;;;5071227;28;20259;-71
2022/01/03 05:24:45;;;;;;;47.07;16.60;;;5.50;95.90;;;;;;5057233;28;20211;-71
2022/01/03 05:27:12;;;;;;;75.90;18.00;;;5.40;95.90;;;;;;5060773;28;20270;-70
2022/01/03 05:29:39;;;;;;;48.37;17.73;;;5.40;95.90;;;;;;5063873;28;20637;-70
2022/01/03 05:32:07;;;;;;;44.13;16.23;;;5.40;95.80;;;;;;5049070;28;20296;-70
2022/01/03 05:34:35;;;;;;;57.80;18.27;;;5.40;95.90;;;;;;5050995;28;20568;-70
2022/01/03 05:37:02;;;;;;;39.03;15.73;;;5.40;95.90;;;;;;5071076;28;20235;-70
2022/01/03 05:39:32;;;;;;;47.57;15.43;;;5.40;95.90;;;;;;5070724;28;20220;-70
2022/01/03 05:41:59;;;;;;;26.47;14.63;;;5.40;95.80;;;;;;5053903;28;20556;-70
2022/01/03 05:44:26;;;;;;;35.87;14.23;;;5.40;95.70;;;;;;5069780;28;20235;-70
2022/01/03 05:46:54;;;;;;;78.87;17.20;;;5.40;95.70;;;;;;5058344;28;20225;-70
2022/01/03 05:49:22;;;;;;;69.83;16.93;;;5.40;95.70;;;;;;5061272;28;20225;-70
2022/01/03 05:51:51;;;;;;;59.57;18.97;;;5.40;95.60;;;;;;5058640;28;20199;-70
2022/01/03 05:54:18;;;;;;;138.93;19.23;;;5.40;95.60;;;;;;5049611;28;20224;-70
2022/01/03 05:56:45;;;;;;;134.17;20.17;;;5.40;95.50;;;;;;5067987;28;20213;-70
2022/01/03 05:59:12;;;;;;;54.40;16.73;;;5.30;95.40;;;;;;5050466;28;20269;-70
2022/01/03 06:01:41;;;;;;;69.30;17.57;;;5.30;95.40;;;;;;5050014;28;20231;-70
2022/01/03 06:04:19;;;;;;;73.30;18.37;;;5.30;95.50;;;;;;5069041;28;20307;-70
2022/01/03 06:06:58;;;;;;;42.60;16.90;;;5.30;95.60;;;;;;5060534;28;20228;-70
2022/01/03 06:09:36;;;;;;;50.90;15.40;;;5.30;95.60;;;;;;5063280;28;20214;-70
2022/01/03 06:12:04;;;;;;;35.50;15.33;;;5.30;95.60;;;;;;5070605;28;20684;-70
2022/01/03 06:14:34;;;;;;;50.97;17.17;;;5.30;95.60;;;;;;5064941;28;20234;-70
2022/01/03 06:17:04;;;;;;;41.90;17.60;;;5.30;95.70;;;;;;5061139;28;20231;-70
2022/01/03 06:19:36;;;;;;;43.73;16.90;;;5.30;95.90;;;;;;5062505;28;20226;-70
2022/01/03 06:22:05;;;;;;;37.13;16.47;;;5.30;95.70;;;;;;5070084;28;20216;-70
2022/01/03 06:24:33;;;;;;;160.40;20.50;;;5.30;95.70;;;;;;5062241;28;20222;-70
2022/01/03 06:27:00;;;;;;;266.57;22.80;;;5.40;95.80;;;;;;5053246;28;20247;-70
2022/01/03 06:29:29;;;;;;;84.93;16.20;;;5.30;95.60;;;;;;5064965;28;20505;-70
2022/01/03 06:31:57;;;;;;;88.10;19.33;;;5.30;95.40;;;;;;5061139;28;20205;-70
2022/01/03 06:34:25;;;;;;;129.90;22.67;;;5.30;95.50;;;;;;5060501;28;20224;-70
2022/01/03 06:36:53;;;;;;;51.83;17.97;;;5.30;95.50;;;;;;5060041;28;20249;-70
2022/01/03 06:39:21;;;;;;;48.13;17.23;;;5.20;95.50;;;;;;5060096;28;20589;-70
2022/01/03 06:41:49;;;;;;;132.10;19.63;;;5.30;95.60;;;;;;5046245;28;20246;-70
2022/01/03 06:44:17;;;;;;;59.03;17.77;;;5.30;95.60;;;;;;5058729;28;20274;-70
2022/01/03 06:46:44;;;;;;;50.30;17.57;;;5.30;95.50;;;;;;5058417;28;20234;-70
2022/01/03 06:49:11;;;;;;;43.90;17.13;;;5.30;95.60;;;;;;5058110;28;20208;-70
2022/01/03 06:51:38;;;;;;;45.43;16.00;;;5.30;95.60;;;;;;5057466;28;20302;-70
2022/01/03 06:54:13;;;;;;;59.27;17.30;;;5.30;95.70;;;;;;5064178;28;20645;-70
2022/01/03 06:56:47;;;;;;;47.10;16.47;;;5.30;95.70;;;;;;5083446;28;20304;-70
2022/01/03 06:59:14;;;;;;;32.83;15.20;;;5.30;95.60;;;;;;5052249;28;20573;-70
2022/01/03 07:01:41;;;;;;;63.97;17.27;;;5.30;95.70;;;;;;5068662;28;20223;-70
2022/01/03 07:04:09;;;;;;;33.27;16.37;;;5.30;95.70;;;;;;5052139;28;20212;-71
2022/01/03 07:06:36;;;;;;;40.43;17.33;;;5.40;95.80;;;;;;5054346;28;20229;-70
2022/01/03 07:09:07;;;;;;;36.47;16.30;;;5.40;95.80;;;;;;5068097;28;20202;-70
2022/01/03 07:11:34;;;;;;;54.20;17.93;;;5.40;95.70;;;;;;5071149;28;20237;-70
2022/01/03 07:18:56;;;;;;;60.00;16.90;;;5.50;95.70;;;;;;5071775;28;20203;-70
2022/01/03 07:19:50;;;;;;;62.60;18.63;;;5.50;95.60;;;;;;5072480;28;20208;-70
2022/01/03 07:22:17;;;;;;;66.37;17.00;;;5.40;95.50;;;;;;5053300;28;20509;-70
2022/01/03 07:24:44;;;;;;;202.57;22.87;;;5.40;95.40;;;;;;5054178;28;20235;-70
2022/01/03 07:27:12;;;;;;;130.17;19.13;;;5.40;95.30;;;;;;5053783;28;20554;-70
2022/01/03 07:29:40;;;;;;;159.93;20.20;;;5.40;95.10;;;;;;5054169;28;20291;-70
2022/01/03 07:32:09;;;;;;;92.03;18.40;;;5.30;95.00;;;;;;5064345;28;20201;-69
2022/01/03 07:34:36;;;;;;;128.53;18.70;;;5.20;95.30;;;;;;5071262;28;20205;-69
2022/01/03 07:37:04;;;;;;;121.43;18.40;;;5.20;95.10;;;;;;5070946;28;20200;-69
2022/01/03 07:39:34;;;;;;;55.47;16.93;;;5.20;95.30;;;;;;5069584;28;20210;-70
2022/01/03 07:42:02;;;;;;;51.40;15.47;;;5.20;95.40;;;;;;5065103;28;20222;-69
2022/01/03 07:44:35;;;;;;;33.53;14.47;;;5.20;95.50;;;;;;5068520;28;20308;-69
2022/01/03 07:47:05;;;;;;;34.90;14.27;;;5.30;95.60;;;;;;5051464;28;20329;-70
2022/01/03 07:49:32;;;;;;;150.07;17.23;;;5.30;95.70;;;;;;5057135;28;20201;-70
2022/01/03 07:52:00;;;;;;;38.80;13.30;;;5.30;95.60;;;;;;5056252;28;20285;-70
2022/01/03 07:54:27;;;;;;;36.70;13.33;;;5.30;95.40;;;;;;5056554;28;20227;-69
2022/01/03 07:56:55;;;;;;;34.70;15.47;;;5.30;95.20;;;;;;5067363;28;20211;-69
2022/01/03 07:59:22;;;;;;;55.23;15.03;;;5.30;95.10;;;;;;5060846;28;20273;-69
2022/01/03 08:01:49;;;;;;;106.03;18.47;;;5.30;95.20;;;;;;5059395;28;20202;-70
2022/01/03 08:04:16;;;;;;;70.97;17.00;;;5.30;95.30;;;;;;5060857;28;20211;-70
2022/01/03 08:06:45;;;;;;;55.63;17.20;;;5.30;95.30;;;;;;5062118;28;20223;-70
2022/01/03 08:09:12;;;;;;;136.67;19.43;;;5.30;95.20;;;;;;5069248;28;20229;-69
2022/01/03 08:11:39;;;;;;;73.97;17.50;;;5.30;95.30;;;;;;5063959;28;20191;-69
2022/01/03 08:14:07;;;;;;;94.17;17.93;;;5.30;95.40;;;;;;5065583;28;20234;-69
2022/01/03 08:16:34;;;;;;;91.33;18.27;;;5.30;95.20;;;;;;5064353;28;20260;-70
2022/01/03 08:19:01;;;;;;;109.07;19.40;;;5.30;95.20;;;;;;5062942;28;20201;-69
2022/01/03 08:21:29;;;;;;;100.23;18.13;;;5.20;95.20;;;;;;5062599;28;20629;-69
2022/01/03 08:23:56;;;;;;;65.57;19.53;;;5.20;95.10;;;;;;5047082;28;20224;-69
2022/01/03 08:26:23;;;;;;;95.47;18.80;;;5.20;95.20;;;;;;5061322;28;20272;-69
2022/01/03 08:28:51;;;;;;;94.67;17.50;;;5.20;95.30;;;;;;5062279;28;20204;-69
2022/01/03 08:31:18;;;;;;;66.73;18.50;;;5.20;95.30;;;;;;5061950;28;20706;-70
2022/01/03 08:33:46;;;;;;;94.27;17.97;;;5.20;95.40;;;;;;5059426;28;20211;-70
2022/01/03 08:36:13;;;;;;;71.73;17.77;;;5.20;95.40;;;;;;5059974;28;20251;-69
2022/01/03 08:38:40;;;;;;;86.80;17.43;;;5.20;95.40;;;;;;5059249;28;20231;-70
2022/01/03 08:41:08;;;;;;;126.73;21.53;;;5.20;95.50;;;;;;5062322;28;20231;-69
2022/01/03 08:43:35;;;;;;;179.57;22.03;;;5.20;95.40;;;;;;5045726;28;20260;-69
2022/01/03 08:46:02;;;;;;;88.77;20.83;;;5.20;95.40;;;;;;5063887;28;20217;-69
2022/01/03 08:48:30;;;;;;;75.57;18.37;;;5.20;95.30;;;;;;5068392;28;20192;-70
2022/01/03 08:50:57;;;;;;;69.80;17.17;;;5.20;95.30;;;;;;5069880;28;20595;-70
2022/01/03 08:53:27;;;;;;;56.53;18.80;;;5.20;95.40;;;;;;5069228;28;20640;-70
2022/01/03 08:55:55;;;;;;;59.27;17.80;;;5.20;95.40;;;;;;5064701;28;20306;-70
2022/01/03 08:58:24;;;;;;;173.83;23.63;;;5.20;95.50;;;;;;5068129;28;20249;-70
2022/01/03 09:00:52;;;;;;;123.60;21.20;;;5.20;95.60;;;;;;5073571;28;20222;-70
2022/01/03 09:03:19;;;;;;;63.13;19.57;;;5.20;95.60;;;;;;5059804;28;20204;-70
2022/01/03 09:05:47;;;;;;;57.13;18.07;;;5.30;95.70;;;;;;5059316;28;20231;-70
2022/01/03 09:08:16;;;;;;;159.00;22.20;;;5.30;95.70;;;;;;5061526;28;20559;-70
2022/01/03 09:10:43;;;;;;;57.70;20.30;;;5.30;95.70;;;;;;5074571;28;20234;-70
2022/01/03 09:13:11;;;;;;;47.47;19.20;;;5.30;95.60;;;;;;5062420;28;20209;-69
2022/01/03 09:15:40;;;;;;;176.60;23.03;;;5.30;95.70;;;;;;5057863;28;20214;-69
2022/01/03 09:18:10;;;;;;;159.23;22.67;;;5.40;95.70;;;;;;5062330;28;20311;-69
2022/01/03 09:20:38;;;;;;;84.03;18.93;;;5.40;95.70;;;;;;5058089;28;20224;-69
2022/01/03 09:23:16;;;;;;;67.90;19.53;;;5.40;95.60;;;;;;5058279;28;20384;-69
2022/01/03 09:30:56;;;;;;;180.17;21.53;;;5.40;95.40;;;;;;5056305;28;20212;-70
2022/01/03 09:33:23;;;;;;;95.17;20.93;;;5.40;95.60;;;;;;5058656;28;20307;-69
2022/01/03 09:35:52;;;;;;;217.90;23.87;;;5.40;95.70;;;;;;5058175;28;20239;-69
2022/01/03 09:38:19;;;;;;;222.37;24.70;;;5.40;95.70;;;;;;5074225;28;20687;-69
2022/01/03 09:40:47;;;;;;;61.30;20.33;;;5.40;95.60;;;;;;5073714;28;20201;-69
2022/01/03 09:43:17;;;;;;;93.73;21.40;;;5.50;95.70;;;;;;5058467;28;20255;-70
2022/01/03 09:45:47;;;;;;;64.33;19.17;;;5.50;95.70;;;;;;5063048;28;20609;-70
2022/01/03 09:48:15;;;;;;;186.33;23.07;;;5.50;95.70;;;;;;5073326;28;20312;-70
2022/01/03 09:50:44;;;;;;;69.03;20.70;;;5.60;95.70;;;;;;5067053;28;20210;-70
2022/01/03 09:53:12;;;;;;;75.33;21.80;;;5.60;95.70;;;;;;5059499;28;20270;-70
2022/01/03 09:55:42;;;;;;;58.07;19.73;;;5.70;95.40;;;;;;5052774;28;20246;-70
2022/01/03 09:58:14;;;;;;;93.83;20.13;;;5.70;95.30;;;;;;5063378;28;20192;-69
2022/01/03 10:00:42;;;;;;;182.47;23.87;;;5.70;95.30;;;;;;5055938;28;20213;-69
2022/01/03 10:03:09;;;;;;;84.23;19.90;;;5.80;95.40;;;;;;5067034;28;20231;-69
2022/01/03 10:05:37;;;;;;;58.47;19.20;;;5.80;95.30;;;;;;5058612;28;20197;-69
2022/01/03 10:08:04;;;;;;;82.97;20.10;;;5.80;95.30;;;;;;5051990;28;20238;-69
2022/01/03 10:10:34;;;;;;;44.43;19.83;;;5.80;95.40;;;;;;5069114;28;20222;-69
2022/01/03 10:13:02;;;;;;;71.93;22.20;;;5.90;95.50;;;;;;5066181;28;20253;-70
2022/01/03 10:15:29;;;;;;;92.40;26.00;;;6.00;95.60;;;;;;5061717;28;20218;-69
2022/01/03 10:17:57;;;;;;;71.37;28.50;;;6.10;95.60;;;;;;5072699;28;20606;-70
2022/01/03 10:20:29;;;;;;;76.80;28.17;;;6.10;95.50;;;;;;5066098;28;20216;-70
2022/01/03 10:23:17;;;;;;;91.83;39.30;;;6.20;95.50;;;;;;5050860;28;20256;-69
2022/01/03 10:25:46;;;;;;;72.87;35.63;;;6.30;95.50;;;;;;5062046;28;20581;-70
2022/01/03 10:28:26;;;;;;;146.63;54.03;;;6.30;95.30;;;;;;5061714;28;20256;-70
2022/01/03 10:30:54;;;;;;;159.40;59.57;;;6.40;95.30;;;;;;5064572;28;20197;-69
2022/01/03 10:33:22;;;;;;;167.30;65.07;;;6.40;95.30;;;;;;5062725;28;20244;-69
2022/01/03 10:35:52;;;;;;;152.03;60.40;;;6.50;95.20;;;;;;5060871;28;20633;-69
2022/01/03 10:38:33;;;;;;;129.10;55.93;;;6.50;95.10;;;;;;5065557;28;20607;-69
2022/01/03 10:41:14;;;;;;;160.97;53.63;;;6.60;95.00;;;;;;5061580;28;20300;-70
2022/01/03 10:43:56;;;;;;;120.10;50.73;;;6.60;94.90;;;;;;5062724;28;20644;-70
2022/01/03 10:46:28;;;;;;;110.33;42.73;;;6.60;94.80;;;;;;5066996;28;20208;-69
2022/01/03 10:49:18;;;;;;;85.40;39.57;;;6.60;94.80;;;;;;5049481;28;20204;-69
2022/01/03 10:51:46;;;;;;;102.30;44.07;;;6.60;94.80;;;;;;5061757;28;20209;-70
2022/01/03 10:54:19;;;;;;;104.73;47.03;;;6.60;94.80;;;;;;5061608;28;20203;-69
2022/01/03 10:56:49;;;;;;;140.57;47.70;;;6.60;94.80;;;;;;5054016;28;20213;-69
2022/01/03 10:59:18;;;;;;;103.17;40.83;;;6.60;94.60;;;;;;5060216;28;20578;-69
2022/01/03 11:01:59;;;;;;;80.07;36.53;;;6.60;94.50;;;;;;5060088;28;20201;-69
2022/01/03 11:04:39;;;;;;;84.73;35.63;;;6.50;94.30;;;;;;5058359;28;20278;-69
2022/01/03 11:13:22;;;;;;;64.60;30.87;;;6.40;94.40;;;;;;5054553;28;20197;-69
2022/01/03 11:16:01;;;;;;;73.37;37.33;;;6.50;94.60;;;;;;5063543;28;20544;-69
2022/01/03 11:18:33;;;;;;;54.57;29.03;;;6.50;94.70;;;;;;5072256;28;20628;-69
2022/01/03 11:21:00;;;;;;;79.87;31.47;;;6.50;94.70;;;;;;5071942;28;20218;-69
2022/01/03 11:23:32;;;;;;;59.40;32.00;;;6.60;94.80;;;;;;5072184;28;20536;-69
2022/01/03 11:26:05;;;;;;;62.47;31.30;;;6.60;94.70;;;;;;5071860;28;20264;-69
2022/01/03 11:28:33;;;;;;;64.60;33.30;;;6.60;94.70;;;;;;5073737;28;20218;-69
2022/01/03 11:31:02;;;;;;;70.20;30.97;;;6.60;94.80;;;;;;5073514;28;20258;-69
2022/01/03 11:33:30;;;;;;;127.33;33.97;;;6.70;94.70;;;;;;5074267;28;20205;-69
2022/01/03 11:36:19;;;;;;;64.60;30.77;;;6.70;94.60;;;;;;5069148;28;20209;-69
2022/01/03 11:38:47;;;;;;;83.80;30.00;;;6.70;94.50;;;;;;5073660;28;20212;-69
2022/01/03 11:41:14;;;;;;;73.10;32.63;;;6.70;94.50;;;;;;5071752;28;20210;-69
2022/01/03 11:43:43;;;;;;;85.63;38.43;;;6.60;94.30;;;;;;5056096;28;20205;-69
2022/01/03 11:46:11;;;;;;;75.40;34.53;;;6.60;94.40;;;;;;5055356;28;20219;-69
2022/01/03 11:48:39;;;;;;;94.83;35.50;;;6.70;94.50;;;;;;5069150;28;20232;-69
2022/01/03 11:51:09;;;;;;;63.67;32.03;;;6.70;94.50;;;;;;5072195;28;20710;-71
2022/01/03 11:53:45;;;;;;;70.47;34.13;;;6.70;94.40;;;;;;5053338;28;20556;-70
2022/01/03 11:56:19;;;;;;;67.67;32.53;;;6.70;94.50;;;;;;5055901;28;20518;-70
2022/01/03 11:59:06;;;;;;;69.70;34.57;;;6.70;94.50;;;;;;5065112;28;20211;-70
2022/01/03 12:04:58;;;;;;;72.93;36.50;;;6.70;94.50;;;;;;5068062;28;20217;-69
2022/01/03 12:07:26;;;;;;;70.00;35.30;;;6.70;94.50;;;;;;5063023;28;20235;-69
2022/01/03 12:10:09;;;;;;;85.03;36.67;;;6.70;94.60;;;;;;5061143;28;20559;-69
2022/01/03 12:12:38;;;;;;;69.00;35.30;;;6.70;94.70;;;;;;5066041;28;20212;-69
2022/01/03 12:15:31;;;;;;;82.20;35.30;;;6.70;94.70;;;;;;5064237;28;20224;-70
2022/01/03 12:18:00;;;;;;;102.87;35.40;;;6.80;94.70;;;;;;5064665;28;20224;-70
2022/01/03 12:20:40;;;;;;;103.87;36.70;;;6.80;94.80;;;;;;5064849;28;20553;-70
2022/01/03 12:23:08;;;;;;;97.53;34.27;;;6.80;94.40;;;;;;5067029;28;20304;-70
2022/01/03 12:25:36;;;;;;;71.43;34.77;;;6.80;94.30;;;;;;5064663;28;20263;-70
2022/01/03 12:28:10;;;;;;;84.30;36.23;;;6.70;94.10;;;;;;5066295;28;20246;-70
2022/01/03 12:30:55;;;;;;;145.73;48.30;;;6.70;94.20;;;;;;5073442;28;20218;-70
2022/01/03 12:33:24;;;;;;;91.33;41.50;;;6.70;94.50;;;;;;5068348;28;20202;-70
2022/01/03 12:36:15;;;;;;;92.83;37.37;;;6.70;94.40;;;;;;5067085;28;20218;-70
2022/01/03 12:39:05;;;;;;;79.13;40.67;;;6.70;94.60;;;;;;5066098;28;20204;-70
2022/01/03 12:41:42;;;;;;;89.83;43.27;;;6.70;94.70;;;;;;5065124;28;20202;-70
2022/01/03 12:44:11;;;;;;;84.87;44.43;;;6.80;94.80;;;;;;5068625;28;20560;-70
2022/01/03 12:46:38;;;;;;;101.57;49.10;;;6.80;94.80;;;;;;5067976;28;20262;-70
2022/01/03 12:49:26;;;;;;;109.33;47.33;;;6.80;94.90;;;;;;5068218;28;20323;-69
2022/01/03 12:52:13;;;;;;;169.93;54.03;;;6.90;94.90;;;;;;5069446;28;20194;-69
2022/01/03 12:54:41;;;;;;;150.93;44.57;;;6.90;94.80;;;;;;5069245;28;20258;-69
2022/01/03 12:57:14;;;;;;;101.60;46.37;;;6.90;94.50;;;;;;5065101;28;20222;-70
2022/01/03 12:59:41;;;;;;;99.23;42.60;;;6.90;94.40;;;;;;5068132;28;20248;-69
2022/01/03 13:02:44;;;;;;;78.23;36.17;;;6.90;94.50;;;;;;5066521;28;20233;-69
2022/01/03 13:05:11;;;;;;;110.57;38.80;;;7.00;94.60;;;;;;5055462;28;20222;-69
2022/01/03 13:07:38;;;;;;;93.03;39.47;;;6.90;94.50;;;;;;5063702;28;20237;-68
2022/01/03 13:10:06;;;;;;;121.57;34.97;;;6.90;94.50;;;;;;5061264;28;20216;-68